Time;durP1;ratioP1;P1;durP2;ratioP2;P2;SDS_P1;SDS_P2;PMS_P1;PMS_P2;Temp;Humidity;BMP_temperature;BMP_pressure;BME280_temperature;BME280_humidity;BME280_pressure;Samples;Min_cycle;Max_cycle;Signal;HPM_P1;HPM_P2
2021/01/15 12:29:53;;;;;;;15.25;9.10;;;4.60;99.90;;;;;;5112663;27;20731;-88
2021/01/15 12:32:19;;;;;;;15.97;9.80;;;4.60;99.90;;;;;;5109737;28;20498;-88
2021/01/15 12:34:44;;;;;;;6.90;4.63;;;4.70;99.90;;;;;;5110896;28;20194;-88
2021/01/15 12:37:10;;;;;;;15.63;10.00;;;4.70;99.90;;;;;;5112523;28;20416;-89
2021/01/15 12:39:36;;;;;;;5.23;3.67;;;4.60;99.90;;;;;;5113289;28;20201;-87
2021/01/15 12:42:01;;;;;;;4.77;3.03;;;4.60;99.90;;;;;;5113323;28;20169;-85
2021/01/15 12:44:27;;;;;;;3.83;2.77;;;4.60;99.90;;;;;;5103809;28;20246;-85
2021/01/15 12:46:52;;;;;;;3.43;2.67;;;4.50;99.90;;;;;;5091187;28;20664;-85
2021/01/15 12:49:18;;;;;;;3.33;2.73;;;4.50;99.90;;;;;;5090870;28;20194;-85
2021/01/15 12:51:43;;;;;;;5.07;3.33;;;4.50;99.90;;;;;;5093201;28;20184;-85
2021/01/15 12:54:10;;;;;;;3.77;2.87;;;4.50;99.90;;;;;;5092726;28;20186;-85
2021/01/15 12:56:37;;;;;;;4.37;2.83;;;4.40;99.90;;;;;;5094455;28;20194;-84
2021/01/15 12:59:03;;;;;;;3.20;2.90;;;4.50;99.90;;;;;;5098670;28;20281;-84
2021/01/15 13:01:44;;;;;;;3.33;2.53;;;4.40;99.90;;;;;;5093784;28;20206;-85
2021/01/15 13:04:10;;;;;;;2.87;2.20;;;4.40;99.90;;;;;;5092223;28;20194;-84
2021/01/15 13:06:37;;;;;;;3.73;2.60;;;4.50;99.90;;;;;;5093596;28;20166;-84
2021/01/15 13:09:04;;;;;;;3.63;2.90;;;4.40;99.90;;;;;;5107305;28;20678;-85
2021/01/15 13:11:30;;;;;;;4.07;2.47;;;4.50;99.90;;;;;;5113650;28;20222;-84
2021/01/15 13:13:57;;;;;;;3.50;2.50;;;4.40;99.90;;;;;;5096091;28;20825;-86
2021/01/15 13:16:27;;;;;;;2.80;2.30;;;4.40;99.90;;;;;;5094517;28;20622;-83
2021/01/15 13:18:54;;;;;;;3.87;2.73;;;4.40;99.90;;;;;;5091111;28;20644;-85
2021/01/15 13:21:20;;;;;;;4.57;2.90;;;4.40;99.90;;;;;;5107341;28;20660;-85
2021/01/15 13:23:46;;;;;;;6.07;2.87;;;4.40;99.90;;;;;;5113158;28;20208;-85
2021/01/15 13:26:12;;;;;;;8.53;3.00;;;4.30;99.90;;;;;;5113153;28;20218;-85
2021/01/15 13:28:39;;;;;;;12.53;2.90;;;4.30;99.90;;;;;;5099932;28;20210;-85
2021/01/15 13:31:04;;;;;;;2.63;2.43;;;4.30;99.90;;;;;;5090216;28;20189;-85
2021/01/15 13:33:32;;;;;;;2.87;2.57;;;4.30;99.90;;;;;;5104991;28;20184;-85
2021/01/15 13:35:59;;;;;;;2.30;2.10;;;4.30;99.90;;;;;;5092292;28;20174;-84
2021/01/15 13:38:25;;;;;;;3.57;2.47;;;4.40;99.90;;;;;;5102707;28;20281;-83
2021/01/15 13:40:50;;;;;;;3.53;2.77;;;4.40;99.90;;;;;;5103052;28;20202;-83
2021/01/15 13:43:16;;;;;;;4.30;2.57;;;4.30;99.90;;;;;;5091659;28;20186;-83
2021/01/15 13:45:43;;;;;;;3.97;2.83;;;4.30;99.90;;;;;;5080040;28;20522;-83
2021/01/15 13:48:09;;;;;;;2.60;2.10;;;4.30;99.90;;;;;;5080693;28;20633;-84
2021/01/15 13:50:51;;;;;;;3.93;2.60;;;4.30;99.90;;;;;;5078824;28;20182;-84
2021/01/15 13:53:21;;;;;;;4.77;3.00;;;4.30;99.90;;;;;;5081495;28;20175;-85
2021/01/15 13:55:51;;;;;;;3.33;3.03;;;4.20;99.90;;;;;;5094686;28;20185;-84
2021/01/15 13:58:17;;;;;;;3.30;2.50;;;4.30;99.90;;;;;;5079955;28;20551;-85
2021/01/15 14:00:43;;;;;;;1.83;1.67;;;4.30;99.90;;;;;;5077721;28;20719;-82
2021/01/15 14:03:08;;;;;;;3.17;2.67;;;4.30;99.90;;;;;;5077780;28;20171;-85
2021/01/15 14:05:34;;;;;;;2.23;2.03;;;4.30;99.90;;;;;;5077086;28;20186;-84
2021/01/15 14:08:00;;;;;;;2.83;2.57;;;4.30;99.90;;;;;;5077008;28;20202;-85
2021/01/15 14:10:26;;;;;;;1.83;1.73;;;4.30;99.90;;;;;;5088107;28;20185;-84
2021/01/15 14:12:51;;;;;;;3.07;2.43;;;4.30;99.90;;;;;;5094581;28;20182;-84
2021/01/15 14:15:19;;;;;;;2.63;2.07;;;4.30;99.90;;;;;;5095654;28;20665;-84
